La Cueva, New Mexico
Current Conditions -  °F | °C
As of 2:53 AM on Sunday 23 Nov 2014 (Local Time) from KSAF Reporting Station
Clear Clear  
Wind Chill: 31°   Ceiling: Unl
Heat Index: 36°   Visibility: 10mi
Dew Point: 16°   Wind: 6mph
Humidity: 44%   Direction: 230°SW
Pressure: 29.77"   Gusts: NA
Location:  35.6111°N, 105.774°W
Report Text: KSAF 230953Z AUTO 23005KT 10SM CLR 02/M09 A2977 RMK AO2 SLP032 T00221089
Loading
Personal Weather Stations






























Interactive Weather Map New forecast layout! Learn more

10-Day Weather Forecast

Advertisements
Track Severe Weather on mobile